createdAt,value
2022-08-21T00:02:50.605Z,4.30
2022-08-21T00:07:43.236Z,2.03
2022-08-21T00:12:33.256Z,3.87
2022-08-21T00:17:23.849Z,2.77
2022-08-21T00:22:15.452Z,3.95
2022-08-21T00:27:09.274Z,4.03
2022-08-21T00:32:00.299Z,5.57
2022-08-21T00:36:50.933Z,4.97
2022-08-21T00:41:43.015Z,4.53
2022-08-21T00:46:37.730Z,5.10
2022-08-21T00:51:32.540Z,5.15
2022-08-21T00:56:29.888Z,4.60
2022-08-21T01:01:21.382Z,5.25
2022-08-21T01:06:15.378Z,4.63
2022-08-21T01:11:06.854Z,5.00
2022-08-21T01:16:00.943Z,5.85
2022-08-21T01:21:15.264Z,5.85
2022-08-21T01:26:10.000Z,3.43
2022-08-21T01:31:05.568Z,5.40
2022-08-21T01:35:56.524Z,4.40
2022-08-21T01:40:51.692Z,5.38
2022-08-21T01:45:44.013Z,3.65
2022-08-21T01:50:34.097Z,4.50
2022-08-21T01:55:25.908Z,2.73
2022-08-21T02:00:24.058Z,6.68
2022-08-21T02:05:16.189Z,3.40
2022-08-21T02:53:56.860Z,6.43
2022-08-21T03:03:47.579Z,2.97
2022-08-21T03:08:39.090Z,5.97
2022-08-21T03:13:29.753Z,6.38
2022-08-21T03:18:22.956Z,6.00
2022-08-21T03:23:16.780Z,8.00
2022-08-21T03:28:13.001Z,7.25
2022-08-21T03:33:04.439Z,6.88
2022-08-21T03:37:58.238Z,6.60
2022-08-21T03:42:48.906Z,5.47
2022-08-21T03:52:29.909Z,10.38
2022-08-21T03:57:23.106Z,6.55
2022-08-21T04:02:14.979Z,6.22
2022-08-21T04:07:07.553Z,6.75
2022-08-21T04:11:58.651Z,7.20
2022-08-21T04:16:53.169Z,8.80
2022-08-21T04:21:44.729Z,7.80
2022-08-21T04:26:37.330Z,7.70
2022-08-21T04:31:29.766Z,7.75
2022-08-21T04:36:24.514Z,8.95
2022-08-21T04:41:15.681Z,8.05
2022-08-21T04:46:06.754Z,9.90
2022-08-21T04:51:00.833Z,7.57
2022-08-21T04:55:58.460Z,8.55
2022-08-21T05:00:50.150Z,11.20
2022-08-21T05:05:41.260Z,8.32
2022-08-21T05:10:32.585Z,8.77
2022-08-21T05:15:26.193Z,9.00
2022-08-21T05:20:18.022Z,10.98
2022-08-21T05:25:10.865Z,8.77
2022-08-21T05:30:01.287Z,6.88
2022-08-21T05:34:54.765Z,6.75
2022-08-21T05:40:05.186Z,9.27
2022-08-21T05:44:57.116Z,11.40
2022-08-21T05:49:50.452Z,11.07
2022-08-21T05:54:46.971Z,11.15
2022-08-21T05:59:38.241Z,8.52
2022-08-21T06:04:31.226Z,10.45
2022-08-21T06:09:22.307Z,11.68
2022-08-21T06:14:20.757Z,8.88
2022-08-21T06:19:14.381Z,10.10
2022-08-21T06:24:06.601Z,7.75
2022-08-21T06:28:58.185Z,9.07
2022-08-21T06:33:52.497Z,8.93
2022-08-21T06:38:50.847Z,8.00
2022-08-21T06:43:42.584Z,11.23
2022-08-21T06:48:35.807Z,12.90
2022-08-21T06:53:32.301Z,11.97
2022-08-21T06:58:23.003Z,11.18
2022-08-21T07:03:21.822Z,9.80
2022-08-21T07:08:13.176Z,10.00
2022-08-21T07:13:06.660Z,7.82
2022-08-21T07:17:58.118Z,12.93
2022-08-21T07:22:48.287Z,11.02
2022-08-21T07:27:38.324Z,8.43
2022-08-21T07:32:32.166Z,10.13
2022-08-21T07:37:23.590Z,10.15
2022-08-21T07:42:14.160Z,9.77
2022-08-21T08:35:26.564Z,13.45
2022-08-21T08:40:26.520Z,8.40
2022-08-21T08:45:23.047Z,7.67
2022-08-21T08:50:19.715Z,6.22
2022-08-21T08:55:17.303Z,5.93
2022-08-21T09:00:11.817Z,6.47
2022-08-21T09:05:04.220Z,8.43
2022-08-21T09:10:07.287Z,5.97
2022-08-21T09:15:09.162Z,5.68
2022-08-21T09:20:18.373Z,4.50
2022-08-21T09:25:17.535Z,4.18
2022-08-21T09:30:11.965Z,4.30
2022-08-21T09:35:04.385Z,5.07
2022-08-21T09:39:54.215Z,5.97
2022-08-21T09:44:45.762Z,4.07
2022-08-21T09:49:40.987Z,3.78
2022-08-21T09:54:35.027Z,5.00
2022-08-21T09:59:36.383Z,5.50
2022-08-21T10:04:33.205Z,3.55
2022-08-21T10:09:25.845Z,5.00
2022-08-21T10:14:24.551Z,4.03
2022-08-21T10:19:23.580Z,3.63
2022-08-21T10:24:31.367Z,3.53
2022-08-21T10:29:41.867Z,4.28
2022-08-21T10:34:46.487Z,3.28
2022-08-21T10:39:38.651Z,5.18
2022-08-21T10:44:40.075Z,6.53
2022-08-21T10:49:36.382Z,2.23
2022-08-21T10:54:38.141Z,3.13
2022-08-21T10:59:38.970Z,3.78
2022-08-21T11:04:48.919Z,2.63
2022-08-21T11:09:55.717Z,1.55
2022-08-21T11:14:59.244Z,1.73
2022-08-21T11:19:55.176Z,2.75
2022-08-21T11:24:54.785Z,2.67
2022-08-21T11:29:48.267Z,1.15
2022-08-21T11:34:59.039Z,1.92
